PWSweather.com
Personal Weather Stations
Station Observations
KVAGLENALL
West Henrico, Glen Allen, VA 23060-6503

West HenricoGlen Allen, VA 23060-6503

Lat: 37.6554, Lon: -77.5693

Elevation: 273

Station Type: Davis Vantage Pro II

www.glenallenweather.com

High Low Average
Temperature 83.4°F28.6°C 69.7°F20.9°C 76.0°F24.4°C
Dew Point 69.9°F21.1°C 66.3°F19.1°C 68.0°F20.0°C
Winds 29.0 mph 46.7 kmh 0.1 mph 0.2 kmh 8.0 mph S12.9 kmh S
Wind Gusts 29.3 mph47.2 kmh 5.1 mph8.2 kmh 15.0 mph24.1 kmh
Humidity 95% 60% 77%
Pressure 30.02 in1016.6 mb 29.67 in1004.7 mb -
Precipitation 0.00 in0.0 mm - -
Hour Temp Dew Point Humidity Winds Wind Gusts Pressure Precip Precip Rate Daily Precip Total
12:00 AM 76.3°F24.6°C 69.3°F20.7°C 79% 3.0 mph S4.8 kmh S 7.1 mph11.4 kmh 30.02 in1016.6 mb 0.00 in0.0 mm 0.00 in0.0 mm 0.00 in0.0 mm
12:15 AM 76.2°F24.6°C 69.2°F20.7°C 79% 1.0 mph SSW1.6 kmh SSW 9.1 mph14.6 kmh 30.02 in1016.6 mb 0.00 in0.0 mm 0.00 in0.0 mm 0.00 in0.0 mm
12:30 AM 75.9°F24.4°C 69.3°F20.7°C 80% 1.0 mph SSW1.6 kmh SSW 5.1 mph8.2 kmh 30.01 in1016.3 mb 0.00 in0.0 mm 0.00 in0.0 mm 0.00 in0.0 mm
12:45 AM 75.6°F24.2°C 69.3°F20.7°C 81% 4.1 mph SSW6.6 kmh SSW 14.2 mph22.9 kmh 30.02 in1016.6 mb 0.00 in0.0 mm 0.00 in0.0 mm 0.00 in0.0 mm
01:00 AM 75.2°F24.0°C 69.3°F20.7°C 82% 4.1 mph S6.6 kmh S 9.1 mph14.6 kmh 30.02 in1016.6 mb 0.00 in0.0 mm 0.00 in0.0 mm 0.00 in0.0 mm
01:15 AM 74.8°F23.8°C 68.9°F20.5°C 82% 2.0 mph S3.2 kmh S 6.1 mph9.8 kmh 30.01 in1016.3 mb 0.00 in0.0 mm 0.00 in0.0 mm 0.00 in0.0 mm
01:30 AM 74.6°F23.7°C 69.1°F20.6°C 83% 6.1 mph S9.8 kmh S 6.1 mph9.8 kmh 30.00 in1015.9 mb 0.00 in0.0 mm 0.00 in0.0 mm 0.00 in0.0 mm
01:45 AM 74.1°F23.4°C 69.3°F20.7°C 85% 5.1 mph S8.2 kmh S 12.2 mph19.6 kmh 30.00 in1015.9 mb 0.00 in0.0 mm 0.00 in0.0 mm 0.00 in0.0 mm
02:00 AM 73.5°F23.1°C 68.7°F20.4°C 85% 5.1 mph SSE8.2 kmh SSE 6.1 mph9.8 kmh 30.00 in1015.9 mb 0.00 in0.0 mm 0.00 in0.0 mm 0.00 in0.0 mm
02:15 AM 73.0°F22.8°C 68.2°F20.1°C 85% 6.1 mph S9.8 kmh S 15.2 mph24.5 kmh 30.00 in1015.9 mb 0.00 in0.0 mm 0.00 in0.0 mm 0.00 in0.0 mm
02:30 AM 72.5°F22.5°C 67.7°F19.8°C 85% 7.1 mph S11.4 kmh S 14.2 mph22.9 kmh 30.00 in1015.9 mb 0.00 in0.0 mm 0.00 in0.0 mm 0.00 in0.0 mm
02:45 AM 72.1°F22.3°C 67.3°F19.6°C 85% 3.0 mph S4.8 kmh S 11.2 mph18.0 kmh 30.00 in1015.9 mb 0.00 in0.0 mm 0.00 in0.0 mm 0.00 in0.0 mm
03:00 AM 71.7°F22.1°C 67.3°F19.6°C 86% 4.1 mph S6.6 kmh S 10.1 mph16.3 kmh 30.00 in1015.9 mb 0.00 in0.0 mm 0.00 in0.0 mm 0.00 in0.0 mm
03:15 AM 71.4°F21.9°C 67.0°F19.4°C 86% 16.0 mph SSW25.7 kmh SSW 16.2 mph26.1 kmh 30.00 in1015.9 mb 0.00 in0.0 mm 0.00 in0.0 mm 0.00 in0.0 mm
03:30 AM 71.1°F21.7°C 66.7°F19.3°C 86% 4.1 mph SSW6.6 kmh SSW 14.2 mph22.9 kmh 30.00 in1015.9 mb 0.00 in0.0 mm 0.00 in0.0 mm 0.00 in0.0 mm
03:45 AM 70.8°F21.6°C 66.4°F19.1°C 86% 5.1 mph S8.2 kmh S 9.1 mph14.6 kmh 29.99 in1015.6 mb 0.00 in0.0 mm 0.00 in0.0 mm 0.00 in0.0 mm
04:00 AM 70.8°F21.6°C 66.7°F19.3°C 87% 4.1 mph S6.6 kmh S 17.2 mph27.7 kmh 29.99 in1015.6 mb 0.00 in0.0 mm 0.00 in0.0 mm 0.00 in0.0 mm
04:15 AM 70.8°F21.6°C 66.7°F19.3°C 87% 7.1 mph S11.4 kmh S 12.2 mph19.6 kmh 29.98 in1015.2 mb 0.00 in0.0 mm 0.00 in0.0 mm 0.00 in0.0 mm
04:30 AM 70.9°F21.6°C 66.5°F19.2°C 86% 9.1 mph S14.6 kmh S 11.2 mph18.0 kmh 29.98 in1015.2 mb 0.00 in0.0 mm 0.00 in0.0 mm 0.00 in0.0 mm
04:45 AM 71.1°F21.7°C 66.7°F19.3°C 86% 7.1 mph SSW11.4 kmh SSW 21.3 mph34.3 kmh 29.98 in1015.2 mb 0.00 in0.0 mm 0.00 in0.0 mm 0.00 in0.0 mm
05:00 AM 71.3°F21.8°C 66.9°F19.4°C 86% 7.1 mph S11.4 kmh S 19.2 mph30.9 kmh 29.98 in1015.2 mb 0.00 in0.0 mm 0.00 in0.0 mm 0.00 in0.0 mm
05:15 AM 71.4°F21.9°C 66.6°F19.2°C 85% 7.1 mph SSW11.4 kmh SSW 13.2 mph21.2 kmh 29.98 in1015.2 mb 0.00 in0.0 mm 0.00 in0.0 mm 0.00 in0.0 mm
05:30 AM 71.3°F21.8°C 66.5°F19.2°C 85% 9.1 mph S14.6 kmh S 11.2 mph18.0 kmh 29.98 in1015.2 mb 0.00 in0.0 mm 0.00 in0.0 mm 0.00 in0.0 mm
05:45 AM 71.4°F21.9°C 66.6°F19.2°C 85% 4.1 mph SSE6.6 kmh SSE 12.2 mph19.6 kmh 29.98 in1015.2 mb 0.00 in0.0 mm 0.00 in0.0 mm 0.00 in0.0 mm
06:00 AM 71.4°F21.9°C 66.3°F19.1°C 84% 10.1 mph SSW16.3 kmh SSW 22.3 mph35.9 kmh 29.98 in1015.2 mb 0.00 in0.0 mm 0.00 in0.0 mm 0.00 in0.0 mm
06:15 AM 71.4°F21.9°C 66.3°F19.1°C 84% 13.1 mph SSW21.1 kmh SSW 13.2 mph21.2 kmh 29.97 in1014.9 mb 0.00 in0.0 mm 0.00 in0.0 mm 0.00 in0.0 mm
06:30 AM 71.4°F21.9°C 66.3°F19.1°C 84% 13.1 mph SSW21.1 kmh SSW 13.2 mph21.2 kmh 29.97 in1014.9 mb 0.00 in0.0 mm 0.00 in0.0 mm 0.00 in0.0 mm
06:45 AM 71.4°F21.9°C 66.3°F19.1°C 84% 10.1 mph SSW16.3 kmh SSW 10.1 mph16.3 kmh 29.98 in1015.2 mb 0.00 in0.0 mm 0.00 in0.0 mm 0.00 in0.0 mm
07:00 AM 71.4°F21.9°C 66.6°F19.2°C 85% 11.1 mph SW17.9 kmh SW 12.2 mph19.6 kmh 29.98 in1015.2 mb 0.00 in0.0 mm 0.00 in0.0 mm 0.00 in0.0 mm
07:15 AM 71.5°F21.9°C 66.4°F19.1°C 84% 9.1 mph S14.6 kmh S 11.2 mph18.0 kmh 29.98 in1015.2 mb 0.00 in0.0 mm 0.00 in0.0 mm 0.00 in0.0 mm
07:30 AM 71.5°F21.9°C 66.7°F19.3°C 85% 4.1 mph S6.6 kmh S 21.3 mph34.3 kmh 29.98 in1015.2 mb 0.00 in0.0 mm 0.00 in0.0 mm 0.00 in0.0 mm
07:45 AM 71.5°F21.9°C 66.7°F19.3°C 85% 4.1 mph SSW6.6 kmh SSW 9.1 mph14.6 kmh 29.99 in1015.6 mb 0.00 in0.0 mm 0.00 in0.0 mm 0.00 in0.0 mm
08:00 AM 71.5°F21.9°C 66.7°F19.3°C 85% 7.1 mph S11.4 kmh S 14.2 mph22.9 kmh 29.98 in1015.2 mb 0.00 in0.0 mm 0.00 in0.0 mm 0.00 in0.0 mm
08:15 AM 71.7°F22.1°C 66.9°F19.4°C 85% 9.1 mph SW14.6 kmh SW 16.2 mph26.1 kmh 29.99 in1015.6 mb 0.00 in0.0 mm 0.00 in0.0 mm 0.00 in0.0 mm
08:30 AM 72.0°F22.2°C 67.2°F19.6°C 85% 4.1 mph S6.6 kmh S 9.1 mph14.6 kmh 29.98 in1015.2 mb 0.00 in0.0 mm 0.00 in0.0 mm 0.00 in0.0 mm
08:45 AM 72.6°F22.6°C 67.5°F19.7°C 84% 9.1 mph SSW14.6 kmh SSW 16.2 mph26.1 kmh 29.98 in1015.2 mb 0.00 in0.0 mm 0.00 in0.0 mm 0.00 in0.0 mm
09:00 AM 73.6°F23.1°C 68.1°F20.1°C 83% 9.1 mph SW14.6 kmh SW 20.2 mph32.5 kmh 29.97 in1014.9 mb 0.00 in0.0 mm 0.00 in0.0 mm 0.00 in0.0 mm
09:15 AM 74.1°F23.4°C 68.2°F20.1°C 82% 3.0 mph SE4.8 kmh SE 10.1 mph16.3 kmh 29.97 in1014.9 mb 0.00 in0.0 mm 0.00 in0.0 mm 0.00 in0.0 mm
09:30 AM 74.1°F23.4°C 68.2°F20.1°C 82% 10.1 mph SSW16.3 kmh SSW 12.2 mph19.6 kmh 29.97 in1014.9 mb 0.00 in0.0 mm 0.00 in0.0 mm 0.00 in0.0 mm
09:45 AM 73.9°F23.3°C 67.7°F19.8°C 81% 5.1 mph S8.2 kmh S 14.2 mph22.9 kmh 29.97 in1014.9 mb 0.00 in0.0 mm 0.00 in0.0 mm 0.00 in0.0 mm
10:00 AM 74.2°F23.4°C 68.0°F20.0°C 81% 13.1 mph SW21.1 kmh SW 17.2 mph27.7 kmh 29.96 in1014.6 mb 0.00 in0.0 mm 0.00 in0.0 mm 0.00 in0.0 mm
10:15 AM 75.2°F24.0°C 68.2°F20.1°C 79% 6.1 mph SSE9.8 kmh SSE 15.2 mph24.5 kmh 29.95 in1014.2 mb 0.00 in0.0 mm 0.00 in0.0 mm 0.00 in0.0 mm
10:30 AM 76.8°F24.9°C 68.3°F20.2°C 75% 10.1 mph SSW16.3 kmh SSW 24.3 mph39.1 kmh 29.95 in1014.2 mb 0.00 in0.0 mm 0.00 in0.0 mm 0.00 in0.0 mm
10:45 AM 76.9°F24.9°C 68.8°F20.4°C 76% 12.1 mph S19.5 kmh S 18.2 mph29.3 kmh 29.95 in1014.2 mb 0.00 in0.0 mm 0.00 in0.0 mm 0.00 in0.0 mm
11:00 AM 78.2°F25.7°C 68.8°F20.4°C 73% 8.1 mph SSW13.0 kmh SSW 16.2 mph26.1 kmh 29.94 in1013.9 mb 0.00 in0.0 mm 0.00 in0.0 mm 0.00 in0.0 mm
11:15 AM 78.7°F25.9°C 69.3°F20.7°C 73% 5.1 mph SW8.2 kmh SW 6.1 mph9.8 kmh 29.93 in1013.5 mb 0.00 in0.0 mm 0.00 in0.0 mm 0.00 in0.0 mm
11:30 AM 78.6°F25.9°C 68.4°F20.2°C 71% 29.0 mph SSW46.7 kmh SSW 29.3 mph47.2 kmh 29.93 in1013.5 mb 0.00 in0.0 mm 0.00 in0.0 mm 0.00 in0.0 mm
11:45 AM 78.4°F25.8°C 68.2°F20.1°C 71% 14.1 mph SSW22.7 kmh SSW 19.2 mph30.9 kmh 29.93 in1013.5 mb 0.00 in0.0 mm 0.00 in0.0 mm 0.00 in0.0 mm
12:00 PM 79.0°F26.1°C 69.2°F20.7°C 72% 9.1 mph S14.6 kmh S 15.2 mph24.5 kmh 29.93 in1013.5 mb 0.00 in0.0 mm 0.00 in0.0 mm 0.00 in0.0 mm
12:15 PM 80.2°F26.8°C 69.5°F20.8°C 70% 4.1 mph SSE6.6 kmh SSE 13.2 mph21.2 kmh 29.92 in1013.2 mb 0.00 in0.0 mm 0.00 in0.0 mm 0.00 in0.0 mm
12:30 PM 80.7°F27.1°C 69.2°F20.7°C 68% 9.1 mph SSW14.6 kmh SSW 11.2 mph18.0 kmh 29.91 in1012.9 mb 0.00 in0.0 mm 0.00 in0.0 mm 0.00 in0.0 mm
12:45 PM 80.9°F27.2°C 68.9°F20.5°C 67% 9.1 mph S14.6 kmh S 22.3 mph35.9 kmh 29.89 in1012.2 mb 0.00 in0.0 mm 0.00 in0.0 mm 0.00 in0.0 mm
01:00 PM 81.6°F27.6°C 68.7°F20.4°C 65% 13.1 mph SSW21.1 kmh SSW 22.3 mph35.9 kmh 29.89 in1012.2 mb 0.00 in0.0 mm 0.00 in0.0 mm 0.00 in0.0 mm
01:15 PM 81.1°F27.3°C 69.6°F20.9°C 68% 10.1 mph SSW16.3 kmh SSW 18.2 mph29.3 kmh 29.87 in1011.5 mb 0.00 in0.0 mm 0.00 in0.0 mm 0.00 in0.0 mm
01:30 PM 81.8°F27.7°C 68.9°F20.5°C 65% 14.1 mph S22.7 kmh S 21.3 mph34.3 kmh 29.87 in1011.5 mb 0.00 in0.0 mm 0.00 in0.0 mm 0.00 in0.0 mm
01:45 PM 82.1°F27.8°C 69.6°F20.9°C 66% 7.1 mph S11.4 kmh S 14.2 mph22.9 kmh 29.86 in1011.2 mb 0.00 in0.0 mm 0.00 in0.0 mm 0.00 in0.0 mm
02:00 PM 82.0°F27.8°C 69.1°F20.6°C 65% 14.1 mph S22.7 kmh S 25.3 mph40.7 kmh 29.86 in1011.2 mb 0.00 in0.0 mm 0.00 in0.0 mm 0.00 in0.0 mm
02:15 PM 81.5°F27.5°C 69.9°F21.1°C 68% 12.1 mph S19.5 kmh S 12.2 mph19.6 kmh 29.85 in1010.8 mb 0.00 in0.0 mm 0.00 in0.0 mm 0.00 in0.0 mm
02:30 PM 82.6°F28.1°C 69.7°F20.9°C 65% 10.1 mph SSE16.3 kmh SSE 17.2 mph27.7 kmh 29.84 in1010.5 mb 0.00 in0.0 mm 0.00 in0.0 mm 0.00 in0.0 mm
02:45 PM 82.8°F28.2°C 69.9°F21.1°C 65% 9.1 mph S14.6 kmh S 21.3 mph34.3 kmh 29.83 in1010.2 mb 0.00 in0.0 mm 0.00 in0.0 mm 0.00 in0.0 mm
03:00 PM 82.5°F28.1°C 69.6°F20.9°C 65% 16.0 mph S25.7 kmh S 26.3 mph42.3 kmh 29.82 in1009.8 mb 0.00 in0.0 mm 0.00 in0.0 mm 0.00 in0.0 mm
03:15 PM 82.6°F28.1°C 68.8°F20.4°C 63% 13.1 mph SSW21.1 kmh SSW 16.2 mph26.1 kmh 29.81 in1009.5 mb 0.00 in0.0 mm 0.00 in0.0 mm 0.00 in0.0 mm
03:30 PM 83.4°F28.6°C 68.6°F20.3°C 61% 16.0 mph SSW25.7 kmh SSW 26.3 mph42.3 kmh 29.80 in1009.1 mb 0.00 in0.0 mm 0.00 in0.0 mm 0.00 in0.0 mm
03:45 PM 83.2°F28.4°C 68.9°F20.5°C 62% 6.1 mph SW9.8 kmh SW 11.2 mph18.0 kmh 29.79 in1008.8 mb 0.00 in0.0 mm 0.00 in0.0 mm 0.00 in0.0 mm
04:00 PM 82.3°F27.9°C 68.5°F20.3°C 63% 9.1 mph SW14.6 kmh SW 15.2 mph24.5 kmh 29.78 in1008.5 mb 0.00 in0.0 mm 0.00 in0.0 mm 0.00 in0.0 mm
04:15 PM 82.3°F27.9°C 68.9°F20.5°C 64% 13.1 mph SSW21.1 kmh SSW 18.2 mph29.3 kmh 29.76 in1007.8 mb 0.00 in0.0 mm 0.00 in0.0 mm 0.00 in0.0 mm
04:30 PM 82.4°F28.0°C 69.0°F20.6°C 64% 5.1 mph S8.2 kmh S 11.2 mph18.0 kmh 29.75 in1007.5 mb 0.00 in0.0 mm 0.00 in0.0 mm 0.00 in0.0 mm
04:45 PM 83.0°F28.3°C 67.7°F19.8°C 60% 6.1 mph S9.8 kmh S 22.3 mph35.9 kmh 29.74 in1007.1 mb 0.00 in0.0 mm 0.00 in0.0 mm 0.00 in0.0 mm
05:00 PM 81.7°F27.6°C 67.4°F19.7°C 62% 11.1 mph S17.9 kmh S 19.2 mph30.9 kmh 29.74 in1007.1 mb 0.00 in0.0 mm 0.00 in0.0 mm 0.00 in0.0 mm
05:15 PM 81.4°F27.4°C 68.1°F20.1°C 64% 13.1 mph SSW21.1 kmh SSW 13.2 mph21.2 kmh 29.74 in1007.1 mb 0.00 in0.0 mm 0.00 in0.0 mm 0.00 in0.0 mm
05:30 PM 81.0°F27.2°C 68.1°F20.1°C 65% 5.1 mph W8.2 kmh W 25.3 mph40.7 kmh 29.73 in1006.8 mb 0.00 in0.0 mm 0.00 in0.0 mm 0.00 in0.0 mm
05:45 PM 81.1°F27.3°C 67.8°F19.9°C 64% 14.1 mph SW22.7 kmh SW 26.3 mph42.3 kmh 29.72 in1006.4 mb 0.00 in0.0 mm 0.00 in0.0 mm 0.00 in0.0 mm
06:00 PM 81.2°F27.3°C 67.9°F19.9°C 64% 5.1 mph ESE8.2 kmh ESE 22.3 mph35.9 kmh 29.70 in1005.8 mb 0.00 in0.0 mm 0.00 in0.0 mm 0.00 in0.0 mm
06:15 PM 81.0°F27.2°C 67.2°F19.6°C 63% 6.1 mph S9.8 kmh S 15.2 mph24.5 kmh 29.70 in1005.8 mb 0.00 in0.0 mm 0.00 in0.0 mm 0.00 in0.0 mm
06:30 PM 80.9°F27.2°C 67.6°F19.8°C 64% 21.0 mph SSW33.8 kmh SSW 21.3 mph34.3 kmh 29.70 in1005.8 mb 0.00 in0.0 mm 0.00 in0.0 mm 0.00 in0.0 mm
06:45 PM 80.9°F27.2°C 67.1°F19.5°C 63% 1.0 mph S1.6 kmh S 21.3 mph34.3 kmh 29.70 in1005.8 mb 0.00 in0.0 mm 0.00 in0.0 mm 0.00 in0.0 mm
07:00 PM 80.7°F27.1°C 67.4°F19.7°C 64% 5.1 mph SSE8.2 kmh SSE 19.2 mph30.9 kmh 29.70 in1005.8 mb 0.00 in0.0 mm 0.00 in0.0 mm 0.00 in0.0 mm
07:15 PM 80.6°F27.0°C 67.3°F19.6°C 64% 10.1 mph SSW16.3 kmh SSW 22.3 mph35.9 kmh 29.70 in1005.8 mb 0.00 in0.0 mm 0.00 in0.0 mm 0.00 in0.0 mm
07:30 PM 80.2°F26.8°C 67.4°F19.7°C 65% 6.1 mph S9.8 kmh S 9.1 mph14.6 kmh 29.70 in1005.8 mb 0.00 in0.0 mm 0.00 in0.0 mm 0.00 in0.0 mm
07:45 PM 79.8°F26.6°C 67.4°F19.7°C 66% 6.1 mph S9.8 kmh S 11.2 mph18.0 kmh 29.70 in1005.8 mb 0.00 in0.0 mm 0.00 in0.0 mm 0.00 in0.0 mm
08:00 PM 79.8°F26.6°C 67.0°F19.4°C 65% 4.1 mph S6.6 kmh S 13.2 mph21.2 kmh 29.70 in1005.8 mb 0.00 in0.0 mm 0.00 in0.0 mm 0.00 in0.0 mm
08:15 PM 79.6°F26.4°C 67.3°F19.6°C 66% 8.1 mph S13.0 kmh S 15.2 mph24.5 kmh 29.70 in1005.8 mb 0.00 in0.0 mm 0.00 in0.0 mm 0.00 in0.0 mm
08:30 PM 79.5°F26.4°C 67.2°F19.6°C 66% 9.1 mph S14.6 kmh S 12.2 mph19.6 kmh 29.70 in1005.8 mb 0.00 in0.0 mm 0.00 in0.0 mm 0.00 in0.0 mm
08:45 PM 79.1°F26.2°C 67.2°F19.6°C 67% 0.1 mph S0.2 kmh S 11.2 mph18.0 kmh 29.71 in1006.1 mb 0.00 in0.0 mm 0.00 in0.0 mm 0.00 in0.0 mm
09:00 PM 78.9°F26.1°C 67.4°F19.7°C 68% 3.0 mph SE4.8 kmh SE 19.2 mph30.9 kmh 29.70 in1005.8 mb 0.00 in0.0 mm 0.00 in0.0 mm 0.00 in0.0 mm
09:15 PM 76.6°F24.8°C 68.5°F20.3°C 76% 1.0 mph SSW1.6 kmh SSW 7.1 mph11.4 kmh 29.70 in1005.8 mb 0.00 in0.0 mm 0.00 in0.0 mm 0.00 in0.0 mm
09:30 PM 75.2°F24.0°C 69.0°F20.6°C 81% 4.1 mph SSW6.6 kmh SSW 6.1 mph9.8 kmh 29.71 in1006.1 mb 0.01 in0.3 mm 0.04 in1.0 mm 0.01 in0.3 mm
09:45 PM 73.3°F22.9°C 69.2°F20.7°C 87% 5.1 mph S8.2 kmh S 9.1 mph14.6 kmh 29.72 in1006.4 mb 0.05 in1.3 mm 0.16 in4.1 mm 0.05 in1.3 mm
10:00 PM 72.4°F22.4°C 69.3°F20.7°C 90% 4.1 mph S6.6 kmh S 6.1 mph9.8 kmh 29.73 in1006.8 mb 0.05 in1.3 mm 0.00 in0.0 mm 0.05 in1.3 mm
10:15 PM 71.4°F21.9°C 68.6°F20.3°C 91% 3.0 mph S4.8 kmh S 9.1 mph14.6 kmh 29.70 in1005.8 mb 0.07 in1.8 mm 0.08 in2.0 mm 0.07 in1.8 mm
10:30 PM 70.7°F21.5°C 68.5°F20.3°C 93% 3.0 mph S4.8 kmh S 5.1 mph8.2 kmh 29.70 in1005.8 mb 0.07 in1.8 mm 0.00 in0.0 mm 0.07 in1.8 mm
10:45 PM 70.5°F21.4°C 68.7°F20.4°C 94% 3.0 mph S4.8 kmh S 5.1 mph8.2 kmh 29.70 in1005.8 mb 0.03 in0.8 mm 0.00 in0.0 mm 0.07 in1.8 mm
11:00 PM 70.6°F21.4°C 68.7°F20.4°C 94% 3.0 mph SSE4.8 kmh SSE 7.1 mph11.4 kmh 29.68 in1005.1 mb 0.03 in0.8 mm 0.00 in0.0 mm 0.07 in1.8 mm
11:15 PM 70.9°F21.6°C 68.7°F20.4°C 93% 5.1 mph S8.2 kmh S 11.2 mph18.0 kmh 29.69 in1005.4 mb 0.01 in0.3 mm 0.00 in0.0 mm 0.07 in1.8 mm
11:30 PM 70.7°F21.5°C 68.5°F20.3°C 93% 9.1 mph S14.6 kmh S 11.2 mph18.0 kmh 29.67 in1004.7 mb 0.02 in0.5 mm 0.04 in1.0 mm 0.08 in2.0 mm
11:45 PM 70.4°F21.3°C 68.2°F20.1°C 93% 7.1 mph S11.4 kmh S 11.2 mph18.0 kmh 29.68 in1005.1 mb 0.03 in0.8 mm 0.04 in1.0 mm 0.09 in2.3 mm